Time;durP1;ratioP1;P1;durP2;ratioP2;P2;SDS_P1;SDS_P2;PMS_P1;PMS_P2;Temp;Humidity;BMP_temperature;BMP_pressure;BME280_temperature;BME280_humidity;BME280_pressure;Samples;Min_cycle;Max_cycle;Signal;HPM_P1;HPM_P2
2023/04/19 00:01:47;;;;;;;1.70;1.60;;;;;;;10.51;63.07;93427.09;5005876;28;20440;-77
2023/04/19 00:04:13;;;;;;;2.90;1.92;;;;;;;10.73;62.95;93456.06;5007754;28;20038;-78
2023/04/19 00:06:40;;;;;;;2.65;1.77;;;;;;;10.70;63.03;93454.03;5006486;28;20029;-77
2023/04/19 00:09:06;;;;;;;3.33;1.95;;;;;;;10.70;61.39;93441.53;5005424;28;20052;-77
2023/04/19 00:11:32;;;;;;;2.63;1.85;;;;;;;10.65;61.07;93440.94;5003831;28;20436;-78
2023/04/19 00:13:57;;;;;;;2.28;1.70;;;;;;;10.64;61.50;93444.69;5007486;28;20533;-77
2023/04/19 00:16:23;;;;;;;4.10;1.75;;;;;;;10.64;62.41;93437.50;5004464;28;20034;-78
2023/04/19 00:18:48;;;;;;;1.88;1.27;;;;;;;10.55;60.71;93412.06;5004523;28;20041;-77
2023/04/19 00:21:14;;;;;;;2.17;1.42;;;;;;;10.70;60.45;93438.88;5005369;28;20036;-78
2023/04/19 00:23:39;;;;;;;2.00;1.27;;;;;;;10.64;59.93;93436.72;5003904;28;20049;-78
2023/04/19 00:26:04;;;;;;;2.20;1.45;;;;;;;10.48;60.23;93414.44;5005197;28;20048;-77
2023/04/19 00:28:30;;;;;;;1.33;1.23;;;;;;;10.63;60.40;93440.47;5005248;28;20069;-77
2023/04/19 00:30:56;;;;;;;1.30;1.20;;;;;;;10.54;60.30;93434.41;5007095;28;20104;-79
2023/04/19 00:33:21;;;;;;;1.02;1.00;;;;;;;10.41;60.63;93427.47;5004588;28;20037;-78
2023/04/19 00:35:46;;;;;;;1.90;1.50;;;;;;;10.44;59.94;93426.81;5005455;28;20512;-78
2023/04/19 00:38:12;;;;;;;1.33;1.20;;;;;;;10.51;59.82;93425.22;5004646;28;20037;-78
2023/04/19 00:40:37;;;;;;;7.35;3.92;;;;;;;10.55;59.57;93433.31;5002857;28;20462;-78
2023/04/19 00:43:03;;;;;;;3.63;2.15;;;;;;;10.62;59.60;93441.56;5002927;28;20042;-77
2023/04/19 00:45:28;;;;;;;4.15;2.08;;;;;;;10.65;59.45;93436.41;5005453;28;20385;-78
2023/04/19 00:47:54;;;;;;;5.63;2.53;;;;;;;10.73;59.08;93440.88;5006422;28;20423;-78
2023/04/19 00:50:20;;;;;;;4.55;1.90;;;;;;;10.62;60.30;93420.28;5005969;28;20045;-78
2023/04/19 00:52:46;;;;;;;3.30;1.70;;;;;;;10.47;60.70;93389.72;5003687;28;20117;-77
2023/04/19 00:55:12;;;;;;;1.63;1.52;;;;;;;10.62;60.22;93436.25;5005768;28;20377;-79
2023/04/19 00:57:37;;;;;;;2.13;1.90;;;;;;;10.28;60.64;93405.28;5005829;28;20030;-77
2023/04/19 01:00:05;;;;;;;3.22;2.17;;;;;;;10.23;60.81;93414.22;5004958;28;20603;-77
2023/04/19 01:02:31;;;;;;;3.05;2.35;;;;;;;10.26;61.26;93410.94;5006357;28;20108;-78
2023/04/19 01:04:57;;;;;;;9.18;2.60;;;;;;;10.28;61.62;93423.88;5004900;28;20505;-77
2023/04/19 01:07:22;;;;;;;2.22;1.60;;;;;;;10.17;61.92;93418.13;5005120;28;20148;-77
2023/04/19 01:09:47;;;;;;;3.15;2.17;;;;;;;10.31;61.65;93429.34;5005613;28;20382;-77
2023/04/19 01:12:13;;;;;;;3.60;1.80;;;;;;;10.22;61.71;93409.22;5005382;28;20469;-77
2023/04/19 01:14:39;;;;;;;5.47;1.60;;;;;;;10.35;61.21;93420.72;5003672;28;20037;-78
2023/04/19 01:17:06;;;;;;;2.72;2.22;;;;;;;10.34;61.16;93422.59;5006145;28;20132;-77
2023/04/19 01:19:33;;;;;;;2.40;1.40;;;;;;;10.39;60.57;93408.38;5004316;28;20038;-77
2023/04/19 01:21:59;;;;;;;1.55;1.30;;;;;;;10.50;60.16;93414.91;5005807;28;20025;-77
2023/04/19 01:24:24;;;;;;;1.77;1.38;;;;;;;10.25;60.20;93401.41;5004069;28;20464;-78
2023/04/19 01:26:50;;;;;;;2.00;1.30;;;;;;;10.10;60.23;93395.84;5003944;28;20037;-78
2023/04/19 01:29:17;;;;;;;3.00;1.80;;;;;;;10.17;60.79;93412.06;5004453;28;20048;-78
2023/04/19 01:31:47;;;;;;;1.48;1.23;;;;;;;9.97;61.31;93402.16;5002851;28;20033;-77
2023/04/19 01:34:13;;;;;;;2.85;1.52;;;;;;;9.97;61.50;93400.28;5005556;28;20038;-78
2023/04/19 01:36:38;;;;;;;2.30;1.58;;;;;;;9.91;61.67;93382.94;5002753;28;20088;-78
2023/04/19 01:39:03;;;;;;;1.92;1.33;;;;;;;10.26;60.91;93426.88;5006252;28;20172;-78
2023/04/19 01:41:29;;;;;;;4.13;1.63;;;;;;;10.17;60.50;93407.50;5005486;28;20665;-78
2023/04/19 01:43:55;;;;;;;2.17;1.23;;;;;;;10.28;60.34;93416.69;5006809;28;20039;-77
2023/04/19 01:46:20;;;;;;;3.97;1.60;;;;;;;10.33;60.48;93419.16;5001279;28;20042;-77
2023/04/19 01:48:45;;;;;;;2.20;1.50;;;;;;;10.10;61.00;93387.84;5005521;28;20020;-78
2023/04/19 01:51:11;;;;;;;4.45;1.70;;;;;;;10.22;60.95;93417.97;5004907;28;20080;-77
2023/04/19 01:53:36;;;;;;;2.20;1.73;;;;;;;10.16;60.62;93390.03;4998327;28;20650;-77
2023/04/19 01:56:05;;;;;;;4.55;1.33;;;;;;;10.26;61.17;93415.47;5004520;28;20036;-77
2023/04/19 01:58:30;;;;;;;12.45;1.85;;;;;;;10.13;60.80;93388.00;5004977;28;20048;-77
2023/04/19 02:00:55;;;;;;;2.25;1.63;;;;;;;10.27;60.72;93414.34;5007746;28;20017;-78
2023/04/19 02:03:21;;;;;;;3.50;1.70;;;;;;;10.21;60.95;93403.13;4986563;28;20400;-79
2023/04/19 02:05:46;;;;;;;2.47;1.58;;;;;;;10.27;60.38;93387.75;4983218;28;20335;-76
2023/04/19 02:08:11;;;;;;;2.53;1.80;;;;;;;10.40;60.04;93409.94;4994039;28;20030;-77
2023/04/19 02:10:37;;;;;;;2.58;1.52;;;;;;;10.37;60.33;93415.91;5004511;28;20140;-77
2023/04/19 02:13:02;;;;;;;2.65;1.63;;;;;;;10.32;60.68;93409.63;5002122;28;20034;-78
2023/04/19 02:15:27;;;;;;;2.22;1.80;;;;;;;10.36;60.69;93416.97;5006650;28;20076;-77
2023/04/19 02:17:53;;;;;;;4.13;2.00;;;;;;;10.38;60.37;93410.25;5006898;28;20449;-78
2023/04/19 02:20:19;;;;;;;3.83;2.38;;;;;;;10.36;60.38;93419.63;5008490;28;20041;-78
2023/04/19 02:22:44;;;;;;;2.38;2.10;;;;;;;10.05;61.24;93394.13;5008330;28;20034;-78
2023/04/19 02:25:10;;;;;;;3.10;2.17;;;;;;;10.25;61.08;93417.34;5009335;28;20283;-78
2023/04/19 02:27:35;;;;;;;2.78;2.00;;;;;;;10.09;61.31;93397.69;5008016;28;20110;-78
2023/04/19 02:30:00;;;;;;;2.10;1.90;;;;;;;10.21;61.32;93415.63;5006685;28;20707;-78
2023/04/19 02:32:26;;;;;;;3.22;2.67;;;;;;;10.08;61.28;93404.09;5007150;28;20488;-77
2023/04/19 02:34:51;;;;;;;4.22;2.20;;;;;;;10.02;60.90;93400.09;5006897;28;20044;-77
2023/04/19 02:37:17;;;;;;;3.78;2.65;;;;;;;9.83;61.90;93386.38;5007883;28;20108;-78
2023/04/19 02:39:44;;;;;;;3.70;3.05;;;;;;;9.82;62.29;93416.72;5006212;28;20064;-77
2023/04/19 02:42:10;;;;;;;2.75;2.25;;;;;;;9.77;62.54;93408.94;5008860;28;20061;-78
2023/04/19 02:44:35;;;;;;;2.38;2.17;;;;;;;9.66;63.04;93405.03;5006719;28;20038;-77
2023/04/19 02:47:00;;;;;;;2.67;2.47;;;;;;;9.62;63.53;93406.78;5008743;28;20030;-78
2023/04/19 02:49:26;;;;;;;4.00;2.60;;;;;;;9.49;63.28;93383.88;5006714;28;20068;-77
2023/04/19 02:51:51;;;;;;;4.00;2.80;;;;;;;9.37;64.00;93384.50;5007759;28;20084;-78
2023/04/19 02:54:17;;;;;;;4.35;2.63;;;;;;;9.45;64.11;93381.03;5006870;28;20092;-79
2023/04/19 02:56:43;;;;;;;3.38;2.30;;;;;;;9.41;63.91;93383.56;5015282;28;20026;-78
2023/04/19 02:59:08;;;;;;;4.45;2.67;;;;;;;9.26;64.30;93381.38;5005600;28;20046;-77
2023/04/19 03:01:33;;;;;;;3.30;3.00;;;;;;;9.38;63.77;93391.38;5007759;28;20060;-78
2023/04/19 03:03:59;;;;;;;5.82;3.50;;;;;;;9.35;64.14;93390.13;5007721;28;20029;-78
2023/04/19 03:06:25;;;;;;;4.20;2.50;;;;;;;9.49;64.00;93397.13;5006329;28;20037;-78
2023/04/19 03:08:50;;;;;;;2.70;2.38;;;;;;;9.54;63.65;93396.94;5006035;28;20029;-79
2023/04/19 03:11:16;;;;;;;2.97;2.20;;;;;;;9.60;63.74;93412.41;5007656;28;20034;-77
2023/04/19 03:13:42;;;;;;;3.40;3.10;;;;;;;9.66;63.01;93413.00;5005925;28;20107;-77
2023/04/19 03:16:08;;;;;;;2.80;2.60;;;;;;;9.62;62.33;93401.47;5006912;28;20112;-77
2023/04/19 03:18:34;;;;;;;3.80;3.10;;;;;;;9.55;62.27;93385.22;5009010;28;20647;-77
2023/04/19 03:20:59;;;;;;;4.35;2.78;;;;;;;9.62;62.60;93401.47;5005686;28;20041;-77
2023/04/19 03:23:25;;;;;;;4.53;2.72;;;;;;;9.44;62.93;93395.41;5008026;28;20449;-77
2023/04/19 03:25:51;;;;;;;3.10;2.80;;;;;;;9.33;62.88;93392.31;5006225;28;20034;-78
2023/04/19 03:28:16;;;;;;;4.50;3.28;;;;;;;9.49;63.30;93403.19;5006646;28;20388;-79
2023/04/19 03:30:41;;;;;;;3.50;3.13;;;;;;;9.40;62.84;93381.22;5006046;28;20028;-78
2023/04/19 03:33:07;;;;;;;3.50;3.20;;;;;;;9.45;63.04;93403.06;5006987;28;20527;-77
2023/04/19 03:35:32;;;;;;;6.65;3.28;;;;;;;9.22;63.26;93367.19;5006036;28;20037;-77
2023/04/19 03:37:58;;;;;;;6.20;3.88;;;;;;;9.36;63.01;93402.28;5006301;28;20049;-77
2023/04/19 03:40:23;;;;;;;3.33;2.83;;;;;;;9.29;63.00;93396.66;5007185;28;20087;-77
2023/04/19 03:42:48;;;;;;;3.30;3.00;;;;;;;9.15;63.63;93377.50;5005443;28;20157;-77
2023/04/19 03:45:14;;;;;;;3.10;2.83;;;;;;;9.32;62.97;93396.06;5008048;28;20520;-77
2023/04/19 03:47:39;;;;;;;3.65;2.95;;;;;;;9.10;63.02;93376.84;5005078;28;20562;-78
2023/04/19 03:50:05;;;;;;;3.58;3.25;;;;;;;9.18;62.81;93374.22;5013924;28;20041;-77
2023/04/19 03:52:31;;;;;;;3.75;3.03;;;;;;;9.30;62.74;93398.25;5007695;28;20048;-77
2023/04/19 03:54:56;;;;;;;4.95;3.25;;;;;;;9.16;63.02;93372.97;5006588;28;20030;-77
2023/04/19 03:57:21;;;;;;;4.22;2.75;;;;;;;9.06;62.99;93374.03;5005612;28;20487;-77
2023/04/19 03:59:47;;;;;;;3.67;2.83;;;;;;;8.97;63.38;93366.09;5004988;28;20049;-77
2023/04/19 04:02:12;;;;;;;4.70;3.05;;;;;;;9.05;63.63;93388.41;5006289;28;20469;-78
2023/04/19 04:04:38;;;;;;;3.17;2.70;;;;;;;8.88;63.96;93373.28;5006433;28;20034;-78
2023/04/19 04:07:03;;;;;;;3.60;3.30;;;;;;;8.93;64.22;93382.97;5006129;28;20211;-78
2023/04/19 04:09:28;;;;;;;4.60;3.30;;;;;;;9.12;64.04;93401.22;5006028;28;20513;-77
2023/04/19 04:11:54;;;;;;;3.03;2.72;;;;;;;9.09;63.87;93386.69;5006385;28;20034;-78
2023/04/19 04:14:19;;;;;;;3.83;3.03;;;;;;;9.25;63.51;93401.06;5005220;28;20467;-77
2023/04/19 04:16:44;;;;;;;5.85;2.85;;;;;;;9.25;63.47;93393.09;5004180;28;20030;-77
2023/04/19 04:19:10;;;;;;;3.22;2.92;;;;;;;9.46;62.79;93403.84;5004149;28;20555;-76
2023/04/19 04:21:36;;;;;;;5.43;3.08;;;;;;;9.21;62.75;93373.59;5006963;28;20057;-77
2023/04/19 04:24:02;;;;;;;2.83;2.58;;;;;;;9.35;62.43;93400.72;5006203;28;20025;-78
2023/04/19 04:26:32;;;;;;;3.05;2.75;;;;;;;9.36;63.02;93404.94;5006998;28;20465;-77
2023/04/19 04:28:58;;;;;;;3.65;3.20;;;;;;;9.39;62.70;93406.97;5005152;28;20059;-79
2023/04/19 04:31:24;;;;;;;3.55;3.10;;;;;;;9.37;62.83;93400.44;5007425;28;20029;-77
2023/04/19 04:33:52;;;;;;;5.13;3.17;;;;;;;9.40;63.03;93407.75;5005338;28;20116;-78
2023/04/19 04:36:17;;;;;;;3.53;2.95;;;;;;;9.51;62.70;93410.84;5007458;28;20412;-78
2023/04/19 04:38:42;;;;;;;5.32;3.55;;;;;;;9.41;62.17;93396.81;5005011;28;20042;-78
2023/04/19 04:41:08;;;;;;;5.40;3.92;;;;;;;9.42;62.70;93414.31;5005271;28;20042;-78
2023/04/19 04:43:33;;;;;;;5.68;3.50;;;;;;;9.30;62.96;93400.91;5004821;28;20052;-76
2023/04/19 04:45:59;;;;;;;4.90;4.00;;;;;;;9.20;63.21;93403.09;5009592;28;20053;-77
2023/04/19 04:48:25;;;;;;;5.45;4.32;;;;;;;9.33;63.38;93408.25;5002707;28;20037;-77
2023/04/19 04:50:50;;;;;;;10.02;4.72;;;;;;;9.40;63.10;93413.84;5004248;28;20030;-77
2023/04/19 04:53:16;;;;;;;3.72;2.97;;;;;;;9.34;62.67;93414.34;5006570;28;20584;-77
2023/04/19 04:55:41;;;;;;;3.92;3.22;;;;;;;9.37;62.35;93416.34;5004282;28;20571;-77
2023/04/19 04:58:06;;;;;;;4.10;3.70;;;;;;;9.25;62.49;93414.31;5004874;28;20034;-77
2023/04/19 05:00:33;;;;;;;4.10;3.70;;;;;;;9.27;62.80;93425.41;5005281;28;20033;-77
2023/04/19 05:02:58;;;;;;;5.32;3.75;;;;;;;9.21;63.04;93413.41;5005740;28;20033;-77
2023/04/19 05:05:25;;;;;;;4.88;3.33;;;;;;;9.11;63.24;93413.72;5005155;28;20053;-75
2023/04/19 05:07:50;;;;;;;9.43;4.18;;;;;;;9.17;63.15;93417.78;5004877;28;20034;-76
2023/04/19 05:10:15;;;;;;;6.70;3.55;;;;;;;9.29;63.23;93425.13;5004813;28;20054;-77
2023/04/19 05:12:41;;;;;;;3.60;3.30;;;;;;;9.35;62.75;93423.84;5004209;28;20646;-78
2023/04/19 05:15:07;;;;;;;4.60;3.83;;;;;;;9.18;62.87;93406.06;5004418;28;20452;-77
2023/04/19 05:17:32;;;;;;;4.70;3.33;;;;;;;9.18;63.24;93411.38;5011267;28;20913;-78
2023/04/19 05:19:58;;;;;;;2.72;2.53;;;;;;;9.15;62.73;93419.16;4996659;28;20061;-77
2023/04/19 05:22:24;;;;;;;3.00;2.70;;;;;;;9.16;63.05;93410.13;5005183;28;20037;-78
2023/04/19 05:24:49;;;;;;;3.38;2.75;;;;;;;9.43;62.19;93436.34;5004872;28;20539;-77
2023/04/19 05:27:15;;;;;;;3.05;2.75;;;;;;;9.25;62.72;93424.94;5005209;28;20580;-77
2023/04/19 05:29:40;;;;;;;3.55;3.10;;;;;;;9.21;63.02;93426.66;5004716;28;20052;-77
2023/04/19 05:32:06;;;;;;;4.57;3.25;;;;;;;9.06;63.71;93427.09;5004619;28;20513;-77
2023/04/19 05:34:32;;;;;;;3.33;2.97;;;;;;;9.00;64.03;93428.34;5006337;28;20544;-77
2023/04/19 05:36:58;;;;;;;3.83;3.05;;;;;;;8.93;63.82;93430.69;5005579;28;20033;-78
2023/04/19 05:39:23;;;;;;;3.95;3.03;;;;;;;8.83;64.45;93417.75;5003532;28;20042;-78
2023/04/19 05:41:48;;;;;;;5.57;3.83;;;;;;;8.94;64.06;93413.69;5004286;28;20956;-77
2023/04/19 05:44:14;;;;;;;4.65;3.90;;;;;;;8.83;64.46;93396.53;5005936;28;20234;-78
2023/04/19 05:46:39;;;;;;;5.95;4.10;;;;;;;8.99;64.53;93426.81;5004638;28;20048;-77
2023/04/19 05:49:05;;;;;;;4.68;3.60;;;;;;;9.07;64.13;93427.88;5004568;28;20502;-78
2023/04/19 05:51:30;;;;;;;6.30;4.18;;;;;;;8.87;64.43;93413.38;5007762;28;20496;-77
2023/04/19 05:53:56;;;;;;;7.53;3.75;;;;;;;8.80;64.38;93386.56;5008664;28;20380;-77
2023/04/19 05:56:21;;;;;;;6.43;4.78;;;;;;;9.10;64.10;93406.81;5008196;28;20033;-77
2023/04/19 05:58:46;;;;;;;5.32;4.50;;;;;;;9.28;64.15;93437.59;5007190;28;20042;-77
2023/04/19 06:01:12;;;;;;;5.03;4.20;;;;;;;9.10;64.29;93417.41;5007522;28;20068;-76
2023/04/19 06:03:38;;;;;;;6.85;4.55;;;;;;;9.14;64.96;93423.72;5008958;28;20022;-77
2023/04/19 06:06:03;;;;;;;6.93;5.13;;;;;;;9.16;65.31;93436.66;5008028;28;20045;-77
2023/04/19 06:08:29;;;;;;;9.55;4.75;;;;;;;9.10;64.88;93412.13;5010729;28;20567;-77
2023/04/19 06:10:55;;;;;;;5.97;5.00;;;;;;;9.23;64.76;93431.66;5007067;28;20042;-77
2023/04/19 06:13:21;;;;;;;8.13;4.95;;;;;;;9.17;64.71;93428.38;5008864;28;20415;-77
2023/04/19 06:15:47;;;;;;;4.82;3.88;;;;;;;9.23;64.40;93431.66;5007904;28;20029;-78
2023/04/19 06:18:13;;;;;;;7.30;3.67;;;;;;;9.32;64.20;93437.75;5008045;28;20225;-77
2023/04/19 06:20:39;;;;;;;5.78;4.88;;;;;;;9.27;64.44;93422.75;5008540;28;20530;-78
2023/04/19 06:23:05;;;;;;;9.95;5.40;;;;;;;9.34;64.43;93438.97;5006730;28;20041;-77
2023/04/19 06:25:30;;;;;;;7.60;4.57;;;;;;;9.19;64.66;93420.91;5008980;28;20144;-78
2023/04/19 06:27:56;;;;;;;6.90;4.05;;;;;;;8.92;65.63;93437.09;5007130;28;20032;-77
2023/04/19 06:30:21;;;;;;;5.38;4.28;;;;;;;8.92;66.21;93431.78;5008110;28;20444;-77
2023/04/19 06:32:47;;;;;;;4.13;3.72;;;;;;;8.84;65.83;93429.91;5008595;28;20125;-77
2023/04/19 06:35:13;;;;;;;3.53;3.13;;;;;;;8.87;66.87;93443.31;5007118;28;20586;-78
2023/04/19 06:37:38;;;;;;;7.18;4.38;;;;;;;8.92;66.24;93431.78;5008743;28;20289;-78
2023/04/19 06:40:05;;;;;;;6.15;4.63;;;;;;;8.70;66.42;93421.31;5005345;28;20076;-76
2023/04/19 06:42:31;;;;;;;5.50;4.28;;;;;;;8.79;66.87;93428.19;5009796;28;20455;-77
2023/04/19 06:44:56;;;;;;;4.38;3.97;;;;;;;8.90;66.30;93449.88;5005213;28;20048;-78
2023/04/19 06:47:22;;;;;;;3.95;3.28;;;;;;;8.73;66.09;93440.03;5008287;28;20538;-77
2023/04/19 06:49:47;;;;;;;7.07;4.30;;;;;;;8.70;66.59;93438.00;5008316;28;20037;-78
2023/04/19 06:52:12;;;;;;;4.57;4.13;;;;;;;8.66;66.65;93434.41;5008201;28;20025;-78
2023/04/19 06:54:38;;;;;;;3.30;2.70;;;;;;;8.56;66.98;93435.47;5006553;28;20029;-77
2023/04/19 06:57:03;;;;;;;3.80;3.30;;;;;;;8.73;66.68;93460.47;5005960;28;20671;-78
2023/04/19 06:59:31;;;;;;;6.05;3.55;;;;;;;8.72;67.72;93456.25;5013429;28;20603;-78
2023/04/19 07:01:57;;;;;;;5.40;3.17;;;;;;;8.47;67.01;93424.06;5009433;28;20068;-77
2023/04/19 07:04:23;;;;;;;5.85;3.63;;;;;;;8.76;67.52;93433.31;5005856;28;20129;-77
2023/04/19 07:06:48;;;;;;;4.82;4.13;;;;;;;9.05;67.80;93457.38;5008602;28;20033;-78
2023/04/19 07:09:14;;;;;;;5.05;3.28;;;;;;;9.23;66.54;93463.50;5007796;28;20065;-77
2023/04/19 07:11:40;;;;;;;4.28;3.50;;;;;;;9.04;65.85;93434.59;5009148;28;20119;-77
2023/04/19 07:14:05;;;;;;;6.78;3.78;;;;;;;9.07;65.64;93439.28;5006230;28;20519;-78
2023/04/19 07:16:31;;;;;;;5.97;4.32;;;;;;;9.26;65.61;93468.97;5007371;28;20038;-77
2023/04/19 07:18:57;;;;;;;4.05;3.65;;;;;;;9.11;66.41;93460.66;5007239;28;20451;-77
2023/04/19 07:21:25;;;;;;;5.18;4.13;;;;;;;9.09;65.59;93442.41;5005616;28;20344;-77
2023/04/19 07:23:50;;;;;;;4.20;3.67;;;;;;;9.04;66.32;93439.91;5007961;28;20069;-79
2023/04/19 07:26:16;;;;;;;3.90;3.03;;;;;;;9.23;65.00;93469.59;5006095;28;20030;-78
2023/04/19 07:28:41;;;;;;;4.63;3.22;;;;;;;8.89;65.11;93446.47;5007148;28;20045;-78
2023/04/19 07:31:07;;;;;;;5.22;3.13;;;;;;;8.92;66.19;93453.00;5006930;28;20068;-77
2023/04/19 07:33:33;;;;;;;6.45;3.15;;;;;;;9.18;65.67;93472.41;5006088;28;20428;-77
2023/04/19 07:35:58;;;;;;;3.67;3.30;;;;;;;8.99;65.20;93442.72;5007248;28;20161;-78
2023/04/19 07:38:24;;;;;;;4.85;3.30;;;;;;;9.11;65.46;93455.34;5005531;28;20508;-77
2023/04/19 07:40:49;;;;;;;3.20;2.90;;;;;;;9.21;65.26;93447.09;5004956;28;20049;-78
2023/04/19 07:43:15;;;;;;;3.30;3.00;;;;;;;9.41;63.61;93471.13;5005586;28;20087;-77
2023/04/19 07:45:41;;;;;;;4.18;3.17;;;;;;;9.30;63.70;93451.31;5007329;28;20025;-77
2023/04/19 07:48:06;;;;;;;4.78;3.10;;;;;;;9.30;64.62;93453.97;5004867;28;20132;-76
2023/04/19 07:50:32;;;;;;;5.53;4.25;;;;;;;9.17;65.22;93419.63;5007006;28;20045;-77
2023/04/19 07:52:57;;;;;;;5.63;3.13;;;;;;;9.53;64.54;93472.38;5007488;28;20053;-78
2023/04/19 07:55:23;;;;;;;3.75;2.92;;;;;;;9.52;64.11;93473.47;5003909;28;20042;-77
2023/04/19 07:57:49;;;;;;;3.15;2.85;;;;;;;9.49;64.95;93466.16;5014754;28;20029;-77
2023/04/19 08:00:15;;;;;;;3.80;3.20;;;;;;;9.39;64.96;93456.59;5003556;28;20080;-76
2023/04/19 08:02:45;;;;;;;3.33;2.88;;;;;;;9.45;64.74;93456.16;5006340;28;20076;-77
2023/04/19 08:05:11;;;;;;;3.42;3.05;;;;;;;9.51;64.14;93448.81;5005615;28;20821;-79
2023/04/19 08:07:37;;;;;;;6.78;3.08;;;;;;;9.34;64.48;93443.53;5006207;28;20100;-77
2023/04/19 08:10:03;;;;;;;4.68;3.25;;;;;;;9.60;64.19;93446.13;5003639;28;20601;-77
2023/04/19 08:12:29;;;;;;;3.50;2.72;;;;;;;9.60;63.32;93443.47;5005070;28;20040;-77
2023/04/19 08:14:54;;;;;;;4.15;3.65;;;;;;;9.74;63.63;93462.66;5005194;28;20034;-78
2023/04/19 08:17:20;;;;;;;3.17;2.60;;;;;;;9.63;63.42;93440.22;5006668;28;20504;-78
2023/04/19 08:19:48;;;;;;;3.30;3.00;;;;;;;9.78;63.29;93440.47;5004192;28;20052;-78
2023/04/19 08:22:15;;;;;;;4.20;2.88;;;;;;;10.01;62.49;93462.28;5006997;28;20021;-77
2023/04/19 08:24:40;;;;;;;8.35;3.42;;;;;;;9.97;62.45;93447.31;5004539;28;20073;-77
2023/04/19 08:27:05;;;;;;;4.70;3.42;;;;;;;9.98;61.91;93452.28;5005865;28;20560;-78
2023/04/19 08:29:32;;;;;;;4.20;3.20;;;;;;;10.10;61.79;93460.38;5006153;28;20526;-77
2023/04/19 08:31:57;;;;;;;3.47;3.17;;;;;;;9.93;62.83;93462.31;5005992;28;20643;-78
2023/04/19 08:34:23;;;;;;;4.75;3.17;;;;;;;9.51;62.97;93421.47;5004460;28;20046;-78
2023/04/19 08:36:48;;;;;;;3.10;2.80;;;;;;;9.88;62.71;93460.59;5005835;28;20480;-77
2023/04/19 08:39:14;;;;;;;3.45;2.65;;;;;;;9.97;62.29;93461.38;5006559;28;20042;-78
2023/04/19 08:41:39;;;;;;;3.22;2.63;;;;;;;9.93;61.99;93438.41;5003778;28;20038;-78
2023/04/19 08:44:06;;;;;;;3.80;3.28;;;;;;;10.04;62.54;93447.59;5005881;28;20034;-76
2023/04/19 08:46:31;;;;;;;4.05;3.03;;;;;;;10.13;62.27;93443.78;5003892;28;20512;-77
2023/04/19 08:48:58;;;;;;;4.82;3.25;;;;;;;10.22;62.02;93436.56;5005396;28;20033;-77
2023/04/19 08:51:25;;;;;;;4.03;2.92;;;;;;;10.02;61.67;93436.50;5005279;28;20069;-76
2023/04/19 08:53:51;;;;;;;4.85;3.17;;;;;;;9.79;63.18;93438.59;5004482;28;20040;-77
2023/04/19 08:56:17;;;;;;;4.15;3.10;;;;;;;9.76;62.20;93402.84;5005664;28;20737;-78
2023/04/19 08:58:42;;;;;;;5.68;3.40;;;;;;;10.07;62.83;93433.69;5003155;28;20392;-76
2023/04/19 09:01:07;;;;;;;3.75;3.28;;;;;;;9.98;61.36;93423.06;5005011;28;20116;-77
2023/04/19 09:03:33;;;;;;;3.10;2.75;;;;;;;10.20;60.62;93432.69;5007156;28;20456;-77
2023/04/19 09:06:00;;;;;;;3.40;3.10;;;;;;;10.28;60.20;93445.13;5002343;28;20038;-77
2023/04/19 09:08:29;;;;;;;4.82;3.10;;;;;;;10.22;60.25;93435.81;5006160;28;20120;-77
2023/04/19 09:11:00;;;;;;;3.67;2.63;;;;;;;10.23;61.61;93438.13;5002614;28;20045;-77
2023/04/19 09:13:29;;;;;;;5.60;3.05;;;;;;;10.02;63.27;93409.94;5005341;28;20591;-77
2023/04/19 09:16:01;;;;;;;4.60;3.13;;;;;;;10.32;61.46;93425.56;5006634;28;20022;-77
2023/04/19 09:18:27;;;;;;;5.32;3.50;;;;;;;10.16;61.95;93421.13;5005463;28;20231;-78
2023/04/19 09:20:56;;;;;;;5.57;3.33;;;;;;;10.37;61.74;93426.53;5000539;28;20042;-77
2023/04/19 09:23:24;;;;;;;5.60;3.85;;;;;;;10.60;61.27;93427.81;5004248;28;20442;-78
2023/04/19 09:26:00;;;;;;;4.25;3.38;;;;;;;10.41;60.87;93387.59;5001684;28;20037;-77
2023/04/19 09:28:29;;;;;;;9.65;5.53;;;;;;;10.69;60.47;93407.28;5008323;28;20042;-77
2023/04/19 09:30:56;;;;;;;4.43;2.95;;;;;;;10.62;60.19;93402.44;5011629;28;20113;-78
2023/04/19 09:33:38;;;;;;;3.22;2.92;;;;;;;10.86;59.52;93401.03;5008580;28;20029;-78
2023/04/19 09:36:04;;;;;;;3.88;2.75;;;;;;;11.03;58.03;93423.00;5014881;28;20124;-77
2023/04/19 09:38:30;;;;;;;3.72;2.53;;;;;;;11.12;58.16;93425.59;5006563;28;20380;-77
2023/04/19 09:41:06;;;;;;;4.25;3.03;;;;;;;11.05;58.61;93426.09;5008866;28;20025;-78
2023/04/19 09:43:32;;;;;;;3.50;2.30;;;;;;;10.55;57.87;93396.09;5008709;28;20040;-78
2023/04/19 09:45:58;;;;;;;6.25;2.47;;;;;;;10.72;57.46;93410.06;5010940;28;20034;-78
2023/04/19 09:48:23;;;;;;;4.97;2.90;;;;;;;10.59;58.71;93399.66;5003324;28;20057;-77
2023/04/19 09:51:00;;;;;;;3.88;2.72;;;;;;;10.69;58.67;93417.91;4989931;28;20480;-78
2023/04/19 09:53:27;;;;;;;2.72;1.98;;;;;;;10.50;59.80;93399.72;4990437;28;20068;-77
2023/04/19 09:55:52;;;;;;;2.72;2.15;;;;;;;10.52;59.84;93391.41;4986664;28;20529;-77
2023/04/19 09:58:19;;;;;;;4.13;2.20;;;;;;;10.59;59.00;93408.44;4988646;28;20029;-77
2023/04/19 10:00:46;;;;;;;4.53;2.05;;;;;;;10.64;58.25;93402.91;4988059;28;20022;-77
2023/04/19 10:03:13;;;;;;;3.45;2.28;;;;;;;10.69;58.85;93391.31;4991166;28;20076;-78
2023/04/19 10:05:40;;;;;;;4.60;2.50;;;;;;;10.50;58.68;93380.34;4987753;28;20037;-76
2023/04/19 10:08:11;;;;;;;6.82;2.22;;;;;;;10.81;57.78;93398.59;4987235;28;20037;-78
2023/04/19 10:10:38;;;;;;;3.03;2.10;;;;;;;10.52;57.71;93359.50;4988010;28;20261;-77
2023/04/19 10:13:07;;;;;;;3.33;1.77;;;;;;;10.81;57.45;93398.59;4989418;28;20485;-77
2023/04/19 10:15:35;;;;;;;2.45;2.25;;;;;;;10.76;57.25;93394.22;4989312;28;20586;-77
2023/04/19 10:18:01;;;;;;;3.53;2.17;;;;;;;10.54;57.92;93390.00;5002233;28;20352;-78
2023/04/19 10:20:48;;;;;;;5.28;2.35;;;;;;;10.44;58.76;93381.63;4987466;28;20045;-77
2023/04/19 10:23:14;;;;;;;2.88;2.42;;;;;;;10.62;56.74;93393.69;4988266;28;20058;-77
2023/04/19 10:25:39;;;;;;;2.55;2.35;;;;;;;10.62;57.81;93388.38;4986424;28;20034;-78
2023/04/19 10:28:05;;;;;;;2.67;2.10;;;;;;;10.56;56.84;93365.75;4988554;28;20194;-78
2023/04/19 10:30:30;;;;;;;3.17;2.30;;;;;;;10.83;57.84;93375.88;4987759;28;20500;-77
2023/04/19 10:32:58;;;;;;;1.85;1.65;;;;;;;11.05;56.11;93386.19;4988827;28;20034;-78
2023/04/19 10:35:33;;;;;;;5.55;2.67;;;;;;;10.96;57.36;93348.22;4987302;28;20489;-79
2023/04/19 10:38:13;;;;;;;3.05;2.53;;;;;;;11.24;56.45;93379.63;4988307;28;20047;-79
2023/04/19 10:40:51;;;;;;;3.05;2.38;;;;;;;11.27;58.36;93373.63;4995440;28;20564;-77
2023/04/19 10:43:18;;;;;;;6.25;2.00;;;;;;;11.17;56.72;93348.97;5004811;28;20281;-77
2023/04/19 10:45:45;;;;;;;4.57;2.60;;;;;;;11.41;55.96;93364.25;5008997;28;20025;-78
2023/04/19 10:48:43;;;;;;;3.53;2.28;;;;;;;11.55;55.25;93358.66;5005046;28;20158;-78
2023/04/19 10:51:21;;;;;;;2.72;2.08;;;;;;;11.61;52.05;93354.69;5009626;28;20499;-78
2023/04/19 10:53:56;;;;;;;2.08;1.88;;;;;;;11.55;52.63;93358.66;5006408;28;20034;-78
2023/04/19 10:56:22;;;;;;;3.90;1.63;;;;;;;11.58;50.66;93360.69;5006473;28;20508;-77
2023/04/19 10:59:20;;;;;;;2.25;2.05;;;;;;;11.58;52.28;93352.69;5006146;28;20116;-78
2023/04/19 11:01:51;;;;;;;1.75;1.50;;;;;;;11.52;51.88;93359.31;5008075;28;20790;-77
2023/04/19 11:04:28;;;;;;;2.45;2.22;;;;;;;11.42;52.78;93355.16;5006249;28;20056;-78
2023/04/19 11:06:54;;;;;;;2.95;2.38;;;;;;;11.66;53.89;93351.81;5007407;28;20037;-78
2023/04/19 11:09:37;;;;;;;5.20;3.28;;;;;;;11.86;52.97;93350.94;5006806;28;20045;-78
2023/04/19 11:12:10;;;;;;;2.85;2.50;;;;;;;11.98;52.62;93355.50;5004464;28;20038;-77
2023/04/19 11:14:39;;;;;;;2.95;2.28;;;;;;;11.96;51.00;93353.19;5005085;28;20041;-78
2023/04/19 11:17:16;;;;;;;2.45;2.25;;;;;;;11.97;51.00;93333.44;5007884;28;20045;-77
2023/04/19 11:19:51;;;;;;;2.63;1.92;;;;;;;12.08;50.85;93346.31;5006342;28;20041;-78
2023/04/19 11:22:16;;;;;;;2.83;2.63;;;;;;;11.76;50.07;93322.06;5008699;28;20056;-77
2023/04/19 11:24:46;;;;;;;3.00;2.28;;;;;;;11.84;51.31;93336.41;5007664;28;20013;-78
2023/04/19 11:27:13;;;;;;;3.03;2.55;;;;;;;11.96;51.24;93347.06;5007218;28;20046;-77
2023/04/19 11:29:38;;;;;;;2.88;2.03;;;;;;;11.90;49.57;93338.53;5007776;28;20508;-78
2023/04/19 11:32:04;;;;;;;4.40;2.75;;;;;;;11.90;50.81;93325.19;5006434;28;20084;-78
2023/04/19 11:34:35;;;;;;;4.22;3.20;;;;;;;12.08;51.83;93323.06;5008341;28;20637;-78
2023/04/19 11:37:01;;;;;;;3.55;2.30;;;;;;;11.98;50.55;93350.94;5005793;28;20679;-78